createdAt,value
2022-12-31T00:03:02.819Z,89.42
2022-12-31T00:06:15.649Z,89.19
2022-12-31T00:09:18.206Z,89.27
2022-12-31T00:12:20.664Z,89.33
2022-12-31T00:15:23.228Z,89.59
2022-12-31T00:18:26.998Z,89.37
2022-12-31T00:21:31.692Z,89.40
2022-12-31T00:24:35.916Z,89.56
2022-12-31T00:27:38.427Z,89.37
2022-12-31T00:30:40.922Z,89.34
2022-12-31T00:33:44.282Z,89.40
2022-12-31T00:36:47.410Z,89.72
2022-12-31T00:39:49.901Z,90.25
2022-12-31T00:42:52.425Z,90.38
2022-12-31T00:45:54.983Z,90.91
2022-12-31T00:48:57.621Z,90.86
2022-12-31T00:52:00.188Z,91.03
2022-12-31T00:55:02.817Z,90.95
2022-12-31T00:58:05.395Z,90.62
2022-12-31T01:01:21.943Z,90.33
2022-12-31T01:04:24.667Z,90.19
2022-12-31T01:07:27.232Z,90.96
2022-12-31T01:10:48.304Z,90.95
2022-12-31T01:13:59.983Z,90.90
2022-12-31T01:17:02.508Z,90.84
2022-12-31T01:20:05.504Z,90.22
2022-12-31T01:23:10.091Z,90.29
2022-12-31T01:26:14.688Z,90.15
2022-12-31T01:29:17.321Z,89.86
2022-12-31T01:32:19.801Z,89.52
2022-12-31T01:35:22.378Z,89.60
2022-12-31T01:38:26.350Z,89.69
2022-12-31T01:41:39.016Z,89.65
2022-12-31T01:44:41.450Z,89.19
2022-12-31T01:47:50.043Z,88.72
2022-12-31T01:50:54.660Z,88.97
2022-12-31T01:53:58.731Z,88.99
2022-12-31T01:57:02.069Z,89.00
2022-12-31T02:00:06.378Z,88.38
2022-12-31T02:03:09.677Z,88.48
2022-12-31T02:06:24.120Z,88.53
2022-12-31T02:09:26.586Z,88.32
2022-12-31T02:12:29.127Z,88.58
2022-12-31T02:15:48.576Z,88.61
2022-12-31T02:19:06.637Z,88.98
2022-12-31T02:22:15.891Z,88.43
2022-12-31T02:25:44.818Z,88.86
2022-12-31T02:29:18.051Z,88.71
2022-12-31T02:32:38.940Z,89.12
2022-12-31T02:35:44.173Z,89.32
2022-12-31T02:38:48.746Z,88.80
2022-12-31T02:41:52.077Z,89.07
2022-12-31T02:44:54.688Z,89.16
2022-12-31T02:48:02.497Z,89.37
2022-12-31T02:51:13.889Z,89.35
2022-12-31T02:54:16.269Z,89.70
2022-12-31T02:57:27.291Z,89.36
2022-12-31T03:00:51.551Z,89.47
2022-12-31T03:04:14.085Z,89.73
2022-12-31T03:07:24.944Z,89.43
2022-12-31T03:10:27.518Z,89.62
2022-12-31T03:13:29.994Z,89.56
2022-12-31T03:16:32.807Z,89.56
2022-12-31T03:19:54.300Z,89.33
2022-12-31T03:22:56.872Z,89.61
2022-12-31T03:26:00.823Z,89.48
2022-12-31T03:29:03.374Z,89.58
2022-12-31T03:32:06.219Z,89.67
2022-12-31T03:35:10.001Z,89.51
2022-12-31T03:38:13.225Z,89.62
2022-12-31T03:41:15.833Z,89.49
2022-12-31T03:44:18.257Z,89.42
2022-12-31T03:47:20.743Z,89.70
2022-12-31T03:50:23.307Z,89.57
2022-12-31T03:53:27.427Z,89.52
2022-12-31T03:56:29.891Z,89.84
2022-12-31T03:59:32.475Z,89.70
2022-12-31T04:02:35.359Z,89.87
2022-12-31T04:05:37.927Z,89.82
2022-12-31T04:08:40.430Z,88.97
2022-12-31T04:11:43.177Z,89.24
2022-12-31T04:14:45.593Z,89.24
2022-12-31T04:17:49.352Z,89.09
2022-12-31T04:20:51.849Z,88.67
2022-12-31T04:23:54.348Z,88.75
2022-12-31T04:26:59.650Z,88.98
2022-12-31T04:30:08.057Z,89.05
2022-12-31T04:33:10.612Z,88.63
2022-12-31T04:36:13.124Z,88.58
2022-12-31T04:39:15.693Z,88.64
2022-12-31T04:42:18.163Z,88.84
2022-12-31T04:45:20.634Z,89.04
2022-12-31T04:48:23.076Z,89.08
2022-12-31T04:51:27.458Z,89.41
2022-12-31T04:54:29.883Z,89.73
2022-12-31T04:57:32.350Z,89.56
2022-12-31T05:00:35.507Z,89.61
2022-12-31T05:03:43.416Z,89.82
2022-12-31T05:06:45.990Z,89.71
2022-12-31T05:09:48.460Z,89.46
2022-12-31T05:12:50.905Z,89.70
2022-12-31T05:15:53.525Z,89.56
2022-12-31T05:18:55.960Z,89.53
2022-12-31T05:22:16.661Z,89.62
2022-12-31T05:25:19.129Z,89.35
2022-12-31T05:28:22.099Z,88.94
2022-12-31T05:31:24.997Z,89.16
2022-12-31T05:34:27.498Z,89.71
2022-12-31T05:37:30.735Z,89.51
2022-12-31T05:40:33.399Z,89.75
2022-12-31T05:43:35.945Z,89.60
2022-12-31T05:46:38.467Z,89.62
2022-12-31T05:49:40.907Z,89.68
2022-12-31T05:52:47.575Z,89.72
2022-12-31T05:55:50.481Z,89.55
2022-12-31T05:58:53.052Z,89.45
2022-12-31T06:01:55.601Z,89.37
2022-12-31T06:04:58.117Z,89.04
2022-12-31T06:08:00.629Z,89.11
2022-12-31T06:11:03.402Z,88.92
2022-12-31T06:14:05.922Z,88.81
2022-12-31T06:17:08.470Z,88.91
2022-12-31T06:20:13.277Z,88.96
2022-12-31T06:23:15.970Z,89.11
2022-12-31T06:26:18.480Z,89.30
2022-12-31T06:29:20.987Z,88.91
2022-12-31T06:32:23.412Z,89.09
2022-12-31T06:35:25.867Z,89.24
2022-12-31T06:38:31.419Z,88.67
2022-12-31T06:41:34.021Z,88.57
2022-12-31T06:44:36.458Z,88.29
2022-12-31T06:47:38.963Z,88.89
2022-12-31T06:50:41.700Z,88.85
2022-12-31T06:53:46.257Z,88.88
2022-12-31T06:56:51.023Z,89.08
2022-12-31T06:59:54.195Z,88.73
2022-12-31T07:03:22.945Z,89.19
2022-12-31T07:06:58.103Z,88.82
2022-12-31T07:10:12.278Z,89.37
2022-12-31T07:13:27.780Z,89.80
2022-12-31T07:16:56.312Z,89.65
2022-12-31T07:20:05.418Z,89.37
2022-12-31T07:23:08.538Z,89.08
2022-12-31T07:26:22.996Z,89.33
2022-12-31T07:30:00.123Z,89.37
2022-12-31T07:33:28.036Z,88.96
2022-12-31T07:36:40.824Z,89.40
2022-12-31T07:40:05.899Z,89.49
2022-12-31T07:43:24.149Z,89.39
2022-12-31T07:46:30.886Z,89.31
2022-12-31T07:49:34.265Z,89.45
2022-12-31T07:52:37.987Z,89.67
2022-12-31T07:55:40.542Z,90.16
2022-12-31T07:58:57.681Z,89.88
2022-12-31T08:02:35.326Z,89.66
2022-12-31T08:06:05.457Z,89.57
2022-12-31T08:09:26.549Z,89.78
2022-12-31T08:12:34.243Z,89.64
2022-12-31T08:15:40.421Z,89.70
2022-12-31T08:18:43.325Z,89.74
2022-12-31T08:22:11.695Z,88.86
2022-12-31T08:25:14.155Z,88.79
2022-12-31T08:28:44.140Z,88.82
2022-12-31T08:32:13.275Z,88.65
2022-12-31T08:35:24.585Z,88.49
2022-12-31T08:38:38.323Z,88.50
2022-12-31T08:41:49.661Z,87.46
2022-12-31T08:45:13.785Z,88.50
2022-12-31T08:48:22.283Z,88.45
2022-12-31T08:51:26.813Z,88.09
2022-12-31T08:54:30.305Z,88.47
2022-12-31T08:57:40.214Z,88.57
2022-12-31T09:00:42.843Z,88.21
2022-12-31T09:03:55.862Z,88.38
2022-12-31T09:07:01.821Z,89.17
2022-12-31T09:10:18.559Z,88.88
2022-12-31T09:13:58.508Z,88.23
2022-12-31T09:17:12.918Z,87.48
2022-12-31T09:20:42.985Z,87.10
2022-12-31T09:23:46.792Z,86.72
2022-12-31T09:27:01.100Z,86.83
2022-12-31T09:30:12.034Z,87.20
2022-12-31T09:33:32.655Z,87.55
2022-12-31T09:36:45.912Z,87.30
2022-12-31T09:39:49.089Z,86.79
2022-12-31T09:43:20.574Z,86.84
2022-12-31T09:46:58.373Z,86.08
2022-12-31T09:50:20.908Z,85.19
2022-12-31T09:53:51.019Z,84.54
2022-12-31T09:57:37.464Z,85.55
2022-12-31T10:00:59.558Z,84.84
2022-12-31T10:04:40.348Z,84.54
2022-12-31T10:07:53.929Z,83.77
2022-12-31T10:11:03.104Z,83.86
2022-12-31T10:14:24.886Z,83.84
2022-12-31T10:17:49.495Z,83.53
2022-12-31T10:21:02.582Z,83.33
2022-12-31T10:24:34.718Z,82.34
2022-12-31T10:27:52.014Z,83.07
2022-12-31T10:31:09.992Z,81.94
2022-12-31T10:34:16.689Z,81.56
2022-12-31T10:37:29.072Z,81.92
2022-12-31T10:40:37.676Z,82.23
2022-12-31T10:43:43.763Z,82.18
2022-12-31T10:47:01.289Z,82.38
2022-12-31T10:50:15.742Z,82.84
2022-12-31T10:53:33.025Z,83.35
2022-12-31T10:57:01.209Z,83.54
2022-12-31T11:00:16.943Z,83.73
2022-12-31T11:03:31.624Z,83.54
2022-12-31T11:07:11.435Z,83.96
2022-12-31T11:10:37.722Z,83.65
2022-12-31T11:13:51.488Z,83.20
2022-12-31T11:17:21.142Z,82.70
2022-12-31T11:20:40.326Z,82.29
2022-12-31T11:24:09.966Z,81.74
2022-12-31T11:27:49.701Z,81.60
2022-12-31T11:31:20.816Z,80.84
2022-12-31T11:34:29.495Z,81.15
2022-12-31T11:37:44.346Z,80.37
2022-12-31T11:41:00.041Z,79.46
2022-12-31T11:44:20.983Z,79.87
2022-12-31T11:47:29.227Z,79.58
2022-12-31T11:51:13.229Z,79.53
2022-12-31T11:54:45.924Z,79.55
2022-12-31T11:57:52.751Z,79.39
2022-12-31T12:01:17.282Z,79.49
2022-12-31T12:04:19.808Z,79.12
2022-12-31T12:07:24.233Z,79.35
2022-12-31T12:10:36.004Z,79.60
2022-12-31T12:13:39.373Z,79.19
2022-12-31T12:16:41.912Z,78.84
2022-12-31T12:19:47.276Z,79.10
2022-12-31T12:22:52.508Z,78.10
2022-12-31T12:25:54.991Z,78.73
2022-12-31T12:29:16.220Z,79.04
2022-12-31T12:32:22.656Z,79.25
2022-12-31T12:35:31.586Z,79.51
2022-12-31T12:38:34.066Z,79.70
2022-12-31T12:41:36.590Z,79.52
2022-12-31T12:44:40.259Z,79.42
2022-12-31T12:47:43.915Z,79.22
2022-12-31T12:50:49.247Z,79.24
2022-12-31T12:54:05.184Z,78.89
2022-12-31T12:57:31.905Z,78.81
2022-12-31T13:00:50.111Z,78.53
2022-12-31T13:04:32.587Z,79.01
2022-12-31T13:07:26.789Z,78.83
2022-12-31T13:10:47.045Z,79.48
2022-12-31T13:14:03.023Z,79.07
2022-12-31T13:17:26.936Z,79.03
2022-12-31T13:20:47.843Z,79.58
2022-12-31T13:24:10.228Z,79.83
2022-12-31T13:27:34.091Z,79.57
2022-12-31T13:30:42.622Z,80.05
2022-12-31T13:33:49.707Z,80.53
2022-12-31T13:36:54.320Z,80.72
2022-12-31T13:40:04.972Z,80.64
2022-12-31T13:43:25.753Z,80.93
2022-12-31T13:46:28.176Z,81.16
2022-12-31T13:50:14.257Z,81.85
2022-12-31T13:53:28.056Z,81.46
2022-12-31T13:56:36.982Z,82.08
2022-12-31T13:59:45.533Z,81.39
2022-12-31T14:03:06.471Z,81.36
2022-12-31T14:06:17.741Z,81.64
2022-12-31T14:09:24.999Z,82.47
2022-12-31T14:12:33.235Z,82.64
2022-12-31T14:15:45.260Z,82.86
2022-12-31T14:19:30.718Z,82.58
2022-12-31T14:22:49.881Z,82.68
2022-12-31T14:26:01.211Z,82.37
2022-12-31T14:29:21.056Z,82.34
2022-12-31T14:32:38.463Z,82.60
2022-12-31T14:36:00.441Z,82.73
2022-12-31T14:39:51.347Z,82.72
2022-12-31T14:43:17.784Z,82.85
2022-12-31T14:46:29.849Z,82.85
2022-12-31T14:50:04.672Z,83.20
2022-12-31T14:53:17.748Z,83.38
2022-12-31T14:56:31.382Z,83.97
2022-12-31T14:59:40.122Z,84.49
2022-12-31T15:02:50.336Z,84.49
2022-12-31T15:05:58.595Z,84.90
2022-12-31T15:09:39.757Z,84.53
2022-12-31T15:12:50.784Z,84.67
2022-12-31T15:16:11.541Z,84.67
2022-12-31T15:19:19.651Z,84.14
2022-12-31T15:22:41.000Z,84.29
2022-12-31T15:25:48.221Z,84.50
2022-12-31T15:29:01.252Z,83.71
2022-12-31T15:32:07.720Z,83.89
2022-12-31T15:35:22.016Z,84.21
2022-12-31T15:38:38.323Z,84.29
2022-12-31T15:42:36.233Z,84.78
2022-12-31T15:45:27.565Z,85.03
2022-12-31T15:48:51.639Z,85.33
2022-12-31T15:52:22.679Z,85.64
2022-12-31T15:55:38.737Z,85.00
2022-12-31T15:58:41.610Z,85.70
2022-12-31T16:01:45.743Z,86.49
2022-12-31T16:04:49.336Z,86.69
2022-12-31T16:07:56.626Z,87.15
2022-12-31T16:10:59.997Z,87.23
2022-12-31T16:14:03.687Z,88.68
2022-12-31T16:17:07.568Z,88.34
2022-12-31T16:20:25.542Z,88.72
2022-12-31T16:23:28.127Z,88.51
2022-12-31T16:26:36.683Z,88.19
2022-12-31T16:29:48.178Z,88.08
2022-12-31T16:33:03.203Z,87.91
2022-12-31T16:36:06.047Z,88.17
2022-12-31T16:39:27.308Z,87.76
2022-12-31T16:42:30.747Z,88.12
2022-12-31T16:45:35.925Z,88.41
2022-12-31T16:48:38.948Z,88.37
2022-12-31T16:51:42.072Z,89.00
2022-12-31T16:54:47.468Z,88.80
2022-12-31T16:57:57.953Z,88.97
2022-12-31T17:01:11.390Z,88.92
2022-12-31T17:04:19.025Z,88.68
2022-12-31T17:07:27.662Z,89.21
2022-12-31T17:10:36.250Z,89.06
2022-12-31T17:13:39.027Z,88.78
2022-12-31T17:16:57.743Z,88.91
2022-12-31T17:20:11.051Z,89.51
2022-12-31T17:23:23.753Z,89.43
2022-12-31T17:26:29.231Z,89.55
2022-12-31T17:29:32.516Z,88.89
2022-12-31T17:32:37.903Z,88.89
2022-12-31T17:35:42.809Z,89.01
2022-12-31T17:38:45.301Z,88.41
2022-12-31T17:41:50.695Z,88.72
2022-12-31T17:45:15.273Z,88.80
2022-12-31T17:48:19.834Z,89.04
2022-12-31T17:51:24.641Z,89.35
2022-12-31T17:54:27.271Z,89.99
2022-12-31T17:57:30.054Z,90.42
2022-12-31T18:00:36.942Z,90.54
2022-12-31T18:03:39.410Z,91.01
2022-12-31T18:06:42.039Z,91.03
2022-12-31T18:09:44.475Z,90.78
2022-12-31T18:12:48.843Z,91.61
2022-12-31T18:15:52.498Z,91.85
2022-12-31T18:18:58.770Z,91.18
2022-12-31T18:22:01.297Z,91.02
2022-12-31T18:25:04.375Z,91.31
2022-12-31T18:28:09.546Z,91.30
2022-12-31T18:31:26.826Z,90.87
2022-12-31T18:34:29.314Z,91.37
2022-12-31T18:37:33.481Z,92.02
2022-12-31T18:40:35.992Z,91.70
2022-12-31T18:43:38.471Z,91.08
2022-12-31T18:46:41.872Z,90.87
2022-12-31T18:49:48.652Z,91.16
2022-12-31T18:52:51.259Z,90.91
2022-12-31T18:55:56.552Z,90.88
2022-12-31T18:58:59.821Z,91.13
2022-12-31T19:02:02.776Z,91.55
2022-12-31T19:05:21.792Z,91.97
2022-12-31T19:08:24.573Z,92.21
2022-12-31T19:11:27.098Z,92.28
2022-12-31T19:14:29.697Z,92.49
2022-12-31T19:17:32.223Z,92.62
2022-12-31T19:20:35.767Z,92.88
2022-12-31T19:23:38.370Z,93.36
2022-12-31T19:26:43.596Z,92.50
2022-12-31T19:29:46.362Z,92.90
2022-12-31T19:32:49.075Z,92.98
2022-12-31T19:35:51.475Z,92.17
2022-12-31T19:38:53.978Z,93.15
2022-12-31T19:41:59.420Z,93.52
2022-12-31T19:45:02.372Z,93.35
2022-12-31T19:48:05.766Z,93.72
2022-12-31T19:51:11.908Z,93.84
2022-12-31T19:54:14.514Z,93.86
2022-12-31T19:57:17.033Z,94.34
2022-12-31T20:00:22.358Z,93.51
2022-12-31T20:03:25.436Z,93.78
2022-12-31T20:06:28.046Z,93.97
2022-12-31T20:09:30.514Z,94.50
2022-12-31T20:12:34.080Z,94.80
2022-12-31T20:15:39.257Z,94.78
2022-12-31T20:18:43.035Z,95.13
2022-12-31T20:21:45.869Z,94.64
2022-12-31T20:24:48.333Z,94.19
2022-12-31T20:27:54.845Z,94.11
2022-12-31T20:30:57.478Z,94.03
2022-12-31T20:34:00.039Z,93.90
2022-12-31T20:37:02.501Z,93.89
2022-12-31T20:40:05.476Z,93.74
2022-12-31T20:43:08.167Z,93.94
2022-12-31T20:46:18.125Z,94.52
2022-12-31T20:49:37.138Z,94.84
2022-12-31T20:52:44.063Z,94.86
2022-12-31T20:55:46.490Z,94.96
2022-12-31T20:58:49.270Z,94.77
2022-12-31T21:05:14.429Z,94.69
2022-12-31T21:08:17.483Z,94.65
2022-12-31T21:11:38.433Z,94.83
2022-12-31T21:14:44.711Z,95.34
2022-12-31T21:17:47.672Z,95.33
2022-12-31T21:20:52.273Z,95.26
2022-12-31T21:23:54.834Z,95.27
2022-12-31T21:26:57.530Z,95.28
2022-12-31T21:33:22.464Z,94.75
2022-12-31T21:36:24.890Z,95.07
2022-12-31T21:39:27.800Z,94.82
2022-12-31T21:42:30.332Z,94.93
2022-12-31T21:45:32.977Z,94.66
2022-12-31T21:48:35.592Z,94.68
2022-12-31T21:51:57.989Z,94.83
2022-12-31T21:55:21.216Z,95.09
2022-12-31T21:58:26.802Z,94.97
2022-12-31T22:01:48.431Z,94.76
2022-12-31T22:05:16.384Z,94.90
2022-12-31T22:08:14.033Z,94.68
2022-12-31T22:11:18.440Z,95.21
2022-12-31T22:14:20.967Z,95.03
2022-12-31T22:17:23.424Z,94.98
2022-12-31T22:20:27.601Z,95.40
2022-12-31T22:23:31.678Z,95.23
2022-12-31T22:26:34.712Z,95.11
2022-12-31T22:29:37.195Z,94.58
2022-12-31T22:32:39.647Z,94.98
2022-12-31T22:35:42.078Z,95.01
2022-12-31T22:38:45.433Z,94.67
2022-12-31T22:41:47.873Z,94.80
2022-12-31T22:44:50.306Z,95.24
2022-12-31T22:47:53.121Z,95.02
2022-12-31T22:50:57.177Z,94.77
2022-12-31T22:53:59.700Z,94.93
2022-12-31T22:57:02.209Z,95.09
2022-12-31T23:00:10.130Z,95.27
2022-12-31T23:03:13.525Z,95.59
2022-12-31T23:06:16.808Z,95.49
2022-12-31T23:09:37.651Z,95.29
2022-12-31T23:12:40.191Z,95.43
2022-12-31T23:16:04.062Z,95.39
2022-12-31T23:19:25.930Z,95.63
2022-12-31T23:22:46.830Z,95.44
2022-12-31T23:25:51.297Z,95.37
2022-12-31T23:28:53.762Z,95.23
2022-12-31T23:31:56.428Z,95.45
2022-12-31T23:35:02.171Z,95.28
2022-12-31T23:38:07.232Z,95.20
2022-12-31T23:41:14.371Z,95.17
2022-12-31T23:44:16.891Z,95.19
2022-12-31T23:47:20.254Z,95.24
2022-12-31T23:50:23.557Z,95.38
2022-12-31T23:53:26.311Z,95.71
2022-12-31T23:56:28.806Z,95.37
2022-12-31T23:59:31.411Z,95.10
